KDLS/DLS METAR and TAF weather

Enter ICAO airport designator
Station Type Date Time Source
KDLS METAR 2019/06/16 05:53 UTC NOAA

KDLS 160553Z AUTO 31010G17KT 10SM CLR 22/12 A2989 RMK AO2 SLP120 T02170117 10261 20217 51011


Station Type Date Time Source
KDLS Decoded METAR 2019/06/16 05:53 UTC NOAA

THE DALLES MUNICIPAL AIRPORT , OR, United States (KDLS) 45-37N 121-10W 71M
Jun 16, 2019 - 01:53 AM EDT / 2019.06.16 0553 UTC
Wind: from the NW (310 degrees) at 12 MPH (10 KT) gusting to 20 MPH (17 KT):0
Visibility: 10 mile(s):0
Sky conditions: clear
Temperature: 71.1 F (21.7 C)
Dew Point: 53.1 F (11.7 C)
Relative Humidity: 52%
Pressure (altimeter): 29.89 in. Hg (1012 hPa)
Pressure tendency: 0.03 inches (1.1 hPa) higher than three hours ago
ob: KDLS 160553Z AUTO 31010G17KT 10SM CLR 22/12 A2989 RMK AO2 SLP120 T02170117 10261 20217 51011
cycle: 6

Station Type Date Time Source
KDLS TAF 2019/06/16 06:22 UTC NOAA

TAF KDLS 160520Z 1606/1706 31008KT P6SM SKC
FM161700 31020G28KT P6SM SKC
FM170500 31010KT P6SM SKC

Example: see airport list